Time;durP1;ratioP1;P1;durP2;ratioP2;P2;SDS_P1;SDS_P2;PMS_P1;PMS_P2;Temp;Humidity;BMP_temperature;BMP_pressure;BME280_temperature;BME280_humidity;BME280_pressure;Samples;Min_cycle;Max_cycle;Signal;HPM_P1;HPM_P2
2023/07/13 05:03:26;;;;;;;4.47;1.20;;;18.90;79.90;;;;;;5043097;23;20055;-73
2023/07/13 05:05:57;;;;;;;2.88;0.90;;;18.90;80.10;;;;;;4927852;29;20036;-73
2023/07/13 05:08:23;;;;;;;4.85;1.00;;;18.90;80.10;;;;;;4928282;29;20032;-75
2023/07/13 05:10:49;;;;;;;2.70;0.90;;;18.90;79.60;;;;;;4927528;29;20032;-71
2023/07/13 05:13:15;;;;;;;3.67;0.90;;;18.90;80.20;;;;;;4927961;29;20039;-72
2023/07/13 05:15:40;;;;;;;3.38;0.90;;;19.00;80.00;;;;;;4927411;29;20031;-73
2023/07/13 05:18:06;;;;;;;4.13;1.05;;;19.10;79.80;;;;;;4927435;29;20325;-72
2023/07/13 05:20:32;;;;;;;5.90;1.00;;;19.30;79.20;;;;;;4924323;29;20282;-74
2023/07/13 05:22:57;;;;;;;4.10;0.80;;;19.40;79.20;;;;;;4908587;29;20258;-72
2023/07/13 05:25:23;;;;;;;4.40;0.88;;;19.50;78.40;;;;;;4908810;29;20043;-72
2023/07/13 05:27:49;;;;;;;3.25;0.90;;;19.80;77.80;;;;;;4907677;29;20221;-71
2023/07/13 05:30:15;;;;;;;2.50;0.80;;;19.90;77.10;;;;;;4908393;29;20044;-72
2023/07/13 05:32:41;;;;;;;2.60;0.80;;;19.90;77.60;;;;;;4908250;29;20032;-72
2023/07/13 05:35:07;;;;;;;3.97;1.30;;;19.90;77.70;;;;;;4910427;29;20265;-72
2023/07/13 05:37:33;;;;;;;2.58;1.08;;;20.00;77.10;;;;;;4926992;29;20310;-71
2023/07/13 05:39:58;;;;;;;4.35;1.48;;;20.00;77.10;;;;;;4927009;29;20036;-74
2023/07/13 05:42:24;;;;;;;3.35;0.85;;;19.90;76.50;;;;;;4927091;29;20213;-72
2023/07/13 05:44:50;;;;;;;4.15;0.90;;;20.00;76.60;;;;;;4926473;29;20229;-74
2023/07/13 05:47:16;;;;;;;4.45;1.30;;;20.00;76.00;;;;;;4926844;29;20031;-72
2023/07/13 05:49:41;;;;;;;7.80;1.33;;;19.90;76.30;;;;;;4941434;29;20028;-72
2023/07/13 05:52:07;;;;;;;3.60;1.55;;;19.90;75.70;;;;;;4926652;29;20227;-71
2023/07/13 05:54:33;;;;;;;3.47;0.85;;;19.80;76.10;;;;;;4926411;29;20032;-70
2023/07/13 05:56:58;;;;;;;3.58;0.90;;;19.90;75.40;;;;;;4926671;29;20259;-70
2023/07/13 05:59:25;;;;;;;2.25;0.80;;;19.90;76.00;;;;;;4941334;29;20032;-70
2023/07/13 06:01:52;;;;;;;5.60;0.90;;;19.90;76.40;;;;;;4921031;29;20058;-73
2023/07/13 06:04:19;;;;;;;5.40;1.35;;;19.90;76.30;;;;;;4922163;29;20084;-72
2023/07/13 06:06:44;;;;;;;5.57;1.10;;;20.00;76.20;;;;;;4921810;29;20210;-72
2023/07/13 06:09:10;;;;;;;8.18;1.95;;;20.00;76.20;;;;;;4907361;29;20116;-72
2023/07/13 06:11:36;;;;;;;6.85;1.45;;;19.90;76.10;;;;;;4906796;29;20307;-72
2023/07/13 06:14:03;;;;;;;4.88;1.60;;;20.00;76.60;;;;;;4907113;29;20087;-72
2023/07/13 06:16:29;;;;;;;3.72;1.25;;;20.00;76.20;;;;;;4906894;29;20033;-73
2023/07/13 06:18:55;;;;;;;3.60;0.90;;;20.20;75.10;;;;;;4921883;29;20040;-72
2023/07/13 06:21:22;;;;;;;3.70;1.20;;;20.20;74.90;;;;;;4907228;29;20039;-73
2023/07/13 06:23:50;;;;;;;3.83;1.63;;;20.30;75.20;;;;;;4906399;29;20067;-72
2023/07/13 06:26:17;;;;;;;4.43;1.03;;;20.30;74.20;;;;;;4907137;29;20056;-73
2023/07/13 06:28:43;;;;;;;3.20;1.08;;;20.30;74.50;;;;;;4906641;29;20696;-71
2023/07/13 06:31:11;;;;;;;4.80;1.00;;;20.40;74.10;;;;;;4906941;29;20089;-72
2023/07/13 06:33:38;;;;;;;3.85;1.25;;;20.50;74.40;;;;;;4906463;29;20149;-76
2023/07/13 06:36:05;;;;;;;3.15;0.95;;;20.40;74.00;;;;;;4907151;29;20028;-74
2023/07/13 06:38:31;;;;;;;3.45;1.00;;;20.60;74.10;;;;;;4906090;29;20093;-75
2023/07/13 06:40:57;;;;;;;8.57;1.75;;;20.70;73.70;;;;;;4905328;29;20207;-75
2023/07/13 06:43:24;;;;;;;3.03;1.23;;;20.80;73.40;;;;;;4906546;29;20142;-75
2023/07/13 06:45:51;;;;;;;5.28;1.20;;;21.00;72.40;;;;;;4905722;29;20285;-73
2023/07/13 06:48:18;;;;;;;4.65;1.00;;;21.10;72.20;;;;;;4904648;29;20048;-75
2023/07/13 06:50:44;;;;;;;3.33;1.25;;;21.40;71.80;;;;;;4888916;29;20029;-74
2023/07/13 06:53:11;;;;;;;4.72;0.90;;;21.60;71.50;;;;;;4906236;29;20028;-75
2023/07/13 06:55:37;;;;;;;4.28;1.20;;;21.60;70.80;;;;;;4904709;29;20238;-74
2023/07/13 06:58:03;;;;;;;6.15;1.08;;;21.80;70.50;;;;;;4904763;29;20028;-73
2023/07/13 07:00:29;;;;;;;4.88;1.00;;;21.90;70.70;;;;;;4905443;29;20123;-73
2023/07/13 07:02:55;;;;;;;4.32;1.10;;;22.00;68.80;;;;;;4919542;29;20432;-76
2023/07/13 07:05:21;;;;;;;8.00;1.55;;;22.00;70.00;;;;;;4908724;29;20104;-76
2023/07/13 07:07:49;;;;;;;4.03;1.00;;;21.90;70.00;;;;;;4923909;29;20108;-75
2023/07/13 07:10:15;;;;;;;4.25;0.98;;;21.90;69.10;;;;;;4909972;29;20072;-74
2023/07/13 07:12:41;;;;;;;3.20;1.00;;;21.80;69.30;;;;;;4909418;29;20068;-75
2023/07/13 07:15:07;;;;;;;2.63;0.90;;;21.70;69.10;;;;;;4908136;29;20040;-76
2023/07/13 07:17:32;;;;;;;4.90;1.40;;;21.70;69.10;;;;;;4908898;29;20321;-74
2023/07/13 07:19:58;;;;;;;3.30;0.70;;;21.60;69.80;;;;;;4908681;29;20339;-75
2023/07/13 07:22:27;;;;;;;5.63;1.42;;;21.80;69.10;;;;;;4914614;29;20021;-71
2023/07/13 07:24:53;;;;;;;3.58;0.77;;;21.90;69.20;;;;;;4907602;29;20259;-76
2023/07/13 07:27:19;;;;;;;3.60;0.90;;;22.00;67.90;;;;;;4907550;29;20261;-73
2023/07/13 07:29:45;;;;;;;2.53;0.80;;;22.10;67.40;;;;;;4908590;29;20029;-73
2023/07/13 07:32:10;;;;;;;5.70;0.85;;;22.00;66.00;;;;;;4909148;29;20366;-75
2023/07/13 07:34:36;;;;;;;5.43;1.02;;;22.10;65.90;;;;;;4908415;29;20033;-74
2023/07/13 07:37:02;;;;;;;3.03;0.70;;;22.10;66.00;;;;;;4910148;29;20024;-73
2023/07/13 07:39:28;;;;;;;8.60;0.95;;;22.00;66.80;;;;;;4912869;29;20286;-73
2023/07/13 07:41:54;;;;;;;3.55;0.80;;;22.10;67.00;;;;;;4907090;29;20139;-75
2023/07/13 07:44:20;;;;;;;3.88;0.77;;;22.20;67.10;;;;;;4907936;29;20234;-75
2023/07/13 07:46:46;;;;;;;3.08;0.60;;;22.20;66.90;;;;;;4908212;29;20020;-74
2023/07/13 07:49:12;;;;;;;3.30;1.10;;;22.20;67.50;;;;;;4906874;29;20051;-76
2023/07/13 07:51:38;;;;;;;7.13;1.30;;;22.40;67.70;;;;;;4926771;29;20101;-74
2023/07/13 07:54:04;;;;;;;3.80;1.02;;;22.60;66.80;;;;;;4909032;29;20032;-73
2023/07/13 07:56:31;;;;;;;2.22;0.75;;;22.60;66.00;;;;;;4908677;29;20310;-73
2023/07/13 07:58:57;;;;;;;4.63;0.63;;;22.60;65.90;;;;;;4907823;29;20092;-73
2023/07/13 08:01:22;;;;;;;4.55;0.70;;;22.50;65.30;;;;;;4908306;29;20047;-74
2023/07/13 08:03:48;;;;;;;4.93;0.68;;;22.70;64.60;;;;;;4908471;29;20041;-74
2023/07/13 08:06:15;;;;;;;4.95;0.93;;;22.60;64.70;;;;;;4908716;29;20091;-74
2023/07/13 08:08:40;;;;;;;3.15;0.50;;;22.60;63.70;;;;;;4914706;29;20035;-75
2023/07/13 08:11:08;;;;;;;4.78;0.77;;;22.70;63.70;;;;;;4926201;29;20107;-72
2023/07/13 08:13:34;;;;;;;4.10;0.80;;;22.70;63.90;;;;;;4927054;29;20043;-74
2023/07/13 08:16:01;;;;;;;3.25;0.80;;;22.80;64.40;;;;;;4923428;29;20333;-72
2023/07/13 08:18:30;;;;;;;4.00;0.75;;;22.90;63.90;;;;;;4907178;29;20209;-73
2023/07/13 08:20:58;;;;;;;2.72;0.60;;;23.00;63.70;;;;;;4922372;29;20047;-73
2023/07/13 08:23:25;;;;;;;;;;;23.00;63.10;;;;;;4909013;29;20032;-74
2023/07/13 08:25:54;;;;;;;3.17;0.80;;;23.10;62.20;;;;;;4906850;29;20093;-72
2023/07/13 08:28:23;;;;;;;4.35;0.70;;;23.00;62.30;;;;;;4907797;29;20024;-73
2023/07/13 08:30:50;;;;;;;3.33;0.80;;;23.00;62.00;;;;;;4907977;29;20028;-73
2023/07/13 08:33:17;;;;;;;3.47;0.60;;;23.00;62.40;;;;;;4908766;29;20039;-74
2023/07/13 08:35:46;;;;;;;1.92;0.60;;;23.10;62.70;;;;;;4908281;29;20020;-72
2023/07/13 08:38:12;;;;;;;5.28;0.85;;;23.20;62.80;;;;;;4908300;29;20089;-72
2023/07/13 08:40:40;;;;;;;2.17;0.60;;;23.30;62.20;;;;;;4907055;29;20044;-73
2023/07/13 08:43:14;;;;;;;3.42;0.90;;;23.30;62.60;;;;;;4922031;29;20199;-72
2023/07/13 08:45:49;;;;;;;3.15;0.63;;;23.50;62.70;;;;;;4907194;29;20321;-73
2023/07/13 08:48:18;;;;;;;5.57;0.88;;;23.60;62.10;;;;;;4922067;29;20104;-73
2023/07/13 08:51:18;;;;;;;4.45;0.80;;;23.60;62.20;;;;;;4926078;29;20028;-73
2023/07/13 08:53:49;;;;;;;1.50;0.70;;;23.70;62.40;;;;;;4906127;29;20144;-76
2023/07/13 08:56:21;;;;;;;3.10;0.75;;;23.80;62.60;;;;;;4907420;29;20084;-75
2023/07/13 08:58:51;;;;;;;4.00;0.80;;;24.00;62.10;;;;;;4906431;29;20048;-74
2023/07/13 09:01:41;;;;;;;2.42;0.70;;;24.00;61.70;;;;;;4917468;29;20036;-75
2023/07/13 09:04:15;;;;;;;2.42;0.80;;;24.20;61.90;;;;;;4888375;29;20049;-71
2023/07/13 09:07:25;;;;;;;6.78;2.03;;;24.30;61.70;;;;;;4902456;29;20132;-72
2023/07/13 09:10:18;;;;;;;3.72;1.15;;;24.50;62.50;;;;;;4869992;29;20192;-72
2023/07/13 09:13:04;;;;;;;3.78;1.25;;;24.70;61.00;;;;;;4900966;29;20146;-73
2023/07/13 09:15:46;;;;;;;4.63;1.20;;;24.90;61.60;;;;;;4906610;29;20059;-73
2023/07/13 09:18:27;;;;;;;2.65;0.80;;;25.30;61.30;;;;;;4907001;29;20223;-73
2023/07/13 09:20:57;;;;;;;2.60;0.63;;;25.50;59.70;;;;;;4906462;29;20099;-73
2023/07/13 09:23:26;;;;;;;4.40;0.82;;;25.70;59.40;;;;;;4906527;29;20028;-73
2023/07/13 09:25:58;;;;;;;4.40;0.60;;;25.60;58.40;;;;;;4905997;29;20036;-73
2023/07/13 09:28:35;;;;;;;1.95;0.60;;;25.40;58.60;;;;;;4906654;29;20047;-73
2023/07/13 09:31:04;;;;;;;3.55;0.75;;;25.50;58.60;;;;;;4921532;29;20088;-73
2023/07/13 09:33:31;;;;;;;4.22;0.90;;;25.30;59.30;;;;;;4907442;29;20043;-72
2023/07/13 09:36:01;;;;;;;4.60;0.85;;;25.40;59.00;;;;;;4906975;29;20020;-73
2023/07/13 09:38:29;;;;;;;3.08;0.90;;;25.50;59.20;;;;;;4906454;29;20045;-74
2023/07/13 09:41:16;;;;;;;1.77;0.70;;;25.70;58.40;;;;;;4906843;29;20051;-75
2023/07/13 09:44:11;;;;;;;4.72;0.85;;;26.00;58.10;;;;;;4906533;29;20036;-73
2023/07/13 09:46:39;;;;;;;3.20;0.80;;;26.00;58.00;;;;;;4907635;29;20302;-74
2023/07/13 09:49:04;;;;;;;5.47;0.90;;;25.70;58.30;;;;;;4921115;29;20195;-75
2023/07/13 09:51:30;;;;;;;2.30;0.80;;;25.40;59.00;;;;;;4906944;29;20045;-73
2023/07/13 09:53:57;;;;;;;4.38;0.88;;;25.30;59.50;;;;;;4906381;29;20135;-75
2023/07/13 09:56:27;;;;;;;3.70;1.15;;;25.30;58.70;;;;;;4905972;29;20036;-74
2023/07/13 09:58:53;;;;;;;2.10;0.75;;;25.60;58.10;;;;;;4905994;29;20199;-73
2023/07/13 10:01:39;;;;;;;3.05;0.60;;;26.20;58.60;;;;;;4905369;29;20036;-74
2023/07/13 10:04:15;;;;;;;4.60;1.30;;;26.50;57.20;;;;;;4905859;29;20044;-76
2023/07/13 10:06:42;;;;;;;5.18;0.90;;;26.80;57.00;;;;;;4888011;29;20029;-73
2023/07/13 10:09:08;;;;;;;3.97;1.02;;;27.10;56.40;;;;;;4886783;29;20033;-74
2023/07/13 10:11:37;;;;;;;4.15;0.98;;;27.10;56.20;;;;;;4887971;29;20096;-72
2023/07/13 10:14:15;;;;;;;5.60;0.90;;;26.90;56.10;;;;;;4887816;29;20036;-75
2023/07/13 10:16:43;;;;;;;3.15;0.65;;;26.70;56.80;;;;;;4888250;29;20041;-73
2023/07/13 10:19:22;;;;;;;6.28;0.82;;;26.90;56.70;;;;;;4886320;29;20053;-75
2023/07/13 10:22:01;;;;;;;2.22;0.85;;;26.90;56.10;;;;;;4885953;29;20024;-74
2023/07/13 10:24:31;;;;;;;4.10;0.80;;;27.10;55.80;;;;;;4902475;29;20100;-73
2023/07/13 10:27:17;;;;;;;3.70;0.82;;;27.00;56.60;;;;;;4887423;29;20044;-73
2023/07/13 10:30:25;;;;;;;5.00;0.88;;;27.20;55.70;;;;;;4906200;29;20049;-72
2023/07/13 10:32:52;;;;;;;9.27;1.77;;;27.30;55.50;;;;;;4832900;29;20041;-75
2023/07/13 10:35:20;;;;;;;3.38;0.70;;;27.60;56.00;;;;;;4895696;29;20104;-73
2023/07/13 10:38:06;;;;;;;5.32;1.92;;;27.80;55.50;;;;;;4903462;29;20048;-72
2023/07/13 10:40:45;;;;;;;8.43;2.42;;;28.00;55.20;;;;;;4888770;29;20035;-72
2023/07/13 10:43:42;;;;;;;2.25;0.60;;;28.20;55.30;;;;;;4904411;29;20088;-72
2023/07/13 10:46:12;;;;;;;9.48;1.02;;;28.10;54.30;;;;;;4888148;29;20145;-72
2023/07/13 10:48:39;;;;;;;3.60;1.10;;;28.00;54.90;;;;;;4903997;29;20293;-73
2023/07/13 10:51:07;;;;;;;5.88;1.63;;;28.50;54.10;;;;;;4902331;29;20041;-73
2023/07/13 10:53:36;;;;;;;2.72;1.00;;;28.50;53.90;;;;;;4903912;29;20083;-74
2023/07/13 10:56:11;;;;;;;3.35;0.60;;;28.40;54.00;;;;;;4887687;29;20144;-75
2023/07/13 10:58:41;;;;;;;3.78;1.13;;;28.50;53.50;;;;;;4888571;29;20052;-74
2023/07/13 11:01:07;;;;;;;3.67;0.60;;;28.40;53.90;;;;;;4903349;29;20106;-77
2023/07/13 11:03:59;;;;;;;3.00;0.77;;;28.40;53.80;;;;;;4904202;29;20053;-75
2023/07/13 11:06:29;;;;;;;4.05;0.82;;;28.20;54.00;;;;;;4881318;29;20131;-74
2023/07/13 11:09:03;;;;;;;4.70;0.82;;;28.10;54.00;;;;;;4893890;29;20076;-75
2023/07/13 11:11:32;;;;;;;3.47;1.02;;;28.20;54.10;;;;;;4886338;29;20029;-76
2023/07/13 11:14:04;;;;;;;2.90;0.60;;;28.50;53.80;;;;;;4887272;29;20029;-76
2023/07/13 11:16:46;;;;;;;2.80;1.00;;;28.60;53.10;;;;;;4886335;29;20315;-76
2023/07/13 11:19:15;;;;;;;3.20;0.70;;;28.60;54.40;;;;;;4901768;29;20334;-75
2023/07/13 11:22:13;;;;;;;3.58;0.55;;;28.80;54.30;;;;;;4901641;29;20066;-75
2023/07/13 11:24:53;;;;;;;3.47;0.80;;;28.80;53.30;;;;;;4890152;29;20029;-75
2023/07/13 11:27:45;;;;;;;2.80;0.73;;;28.60;54.20;;;;;;4907275;29;20048;-75
2023/07/13 11:30:29;;;;;;;3.38;0.75;;;28.50;54.40;;;;;;4905568;29;20047;-75
2023/07/13 11:33:20;;;;;;;5.32;0.80;;;28.50;54.10;;;;;;4903885;29;20037;-74
2023/07/13 11:36:00;;;;;;;4.40;1.00;;;28.50;54.00;;;;;;4886264;29;20037;-75
2023/07/13 11:38:35;;;;;;;4.57;1.13;;;29.00;53.10;;;;;;4887755;29;20044;-76
2023/07/13 11:41:07;;;;;;;2.38;0.70;;;29.40;53.20;;;;;;4901293;29;20071;-75
2023/07/13 11:43:33;;;;;;;2.72;0.52;;;30.00;52.10;;;;;;4888202;29;20097;-74
2023/07/13 11:46:13;;;;;;;5.00;0.80;;;30.40;51.30;;;;;;4903758;29;20089;-74
2023/07/13 11:48:39;;;;;;;3.78;0.73;;;30.10;52.10;;;;;;4906354;29;20260;-75
2023/07/13 11:51:05;;;;;;;2.75;0.80;;;31.20;50.40;;;;;;4908496;29;20322;-75
2023/07/13 11:53:40;;;;;;;2.78;0.60;;;31.40;50.40;;;;;;4910015;29;20036;-78
2023/07/13 11:56:06;;;;;;;3.17;0.57;;;31.50;49.90;;;;;;4909396;29;20028;-74
2023/07/13 11:58:32;;;;;;;2.50;0.50;;;31.50;49.70;;;;;;4909802;29;20032;-75
2023/07/13 12:01:02;;;;;;;3.80;0.90;;;30.70;50.40;;;;;;4909346;29;20029;-75
2023/07/13 12:03:29;;;;;;;2.17;0.80;;;29.90;51.20;;;;;;4909504;29;20071;-74
2023/07/13 12:06:05;;;;;;;3.33;0.80;;;29.30;51.70;;;;;;4908931;29;20059;-75
2023/07/13 12:08:38;;;;;;;2.67;0.65;;;29.80;52.20;;;;;;4908758;29;20041;-75
2023/07/13 12:11:11;;;;;;;3.05;0.80;;;31.30;50.80;;;;;;4909332;29;20028;-76
2023/07/13 12:13:41;;;;;;;4.60;0.80;;;32.40;49.40;;;;;;4908579;29;20036;-75
2023/07/13 12:16:26;;;;;;;3.53;0.82;;;34.20;47.80;;;;;;4909476;29;20024;-75
2023/07/13 12:18:53;;;;;;;2.10;0.80;;;34.50;47.10;;;;;;4908203;29;20032;-74
2023/07/13 12:21:30;;;;;;;5.47;0.70;;;34.00;47.50;;;;;;4909521;29;20032;-76
2023/07/13 12:23:55;;;;;;;2.20;0.65;;;32.40;48.10;;;;;;4908476;29;20059;-74
2023/07/13 12:26:21;;;;;;;2.50;0.70;;;31.60;50.30;;;;;;4909722;29;20040;-74
2023/07/13 12:28:56;;;;;;;2.80;0.90;;;31.80;50.00;;;;;;4909430;29;20040;-73
2023/07/13 12:31:42;;;;;;;3.75;0.80;;;32.40;49.80;;;;;;4908063;29;20141;-74
2023/07/13 12:34:14;;;;;;;3.13;0.60;;;33.00;48.60;;;;;;4908592;29;20079;-74
2023/07/13 12:36:45;;;;;;;2.40;0.60;;;33.10;48.40;;;;;;4909112;29;20048;-74
2023/07/13 12:39:19;;;;;;;4.63;0.75;;;33.70;47.70;;;;;;4908600;29;20124;-75
2023/07/13 12:41:45;;;;;;;3.13;0.60;;;33.10;48.50;;;;;;4909237;29;20095;-74
2023/07/13 12:44:14;;;;;;;2.60;0.60;;;32.20;47.70;;;;;;4908547;29;20087;-73
2023/07/13 12:46:53;;;;;;;3.63;0.70;;;31.10;48.70;;;;;;4909163;29;20041;-72
2023/07/13 12:49:24;;;;;;;4.38;1.40;;;30.40;49.70;;;;;;4909176;29;20291;-73
2023/07/13 12:51:55;;;;;;;3.08;0.70;;;29.50;50.10;;;;;;4907466;29;20310;-72
2023/07/13 12:54:21;;;;;;;4.43;0.88;;;29.60;50.60;;;;;;4908007;29;20091;-72
2023/07/13 12:56:52;;;;;;;3.50;1.10;;;31.90;49.30;;;;;;4923245;29;20048;-71
2023/07/13 12:59:20;;;;;;;2.45;0.80;;;34.20;47.00;;;;;;4908972;29;20043;-72
2023/07/13 13:01:49;;;;;;;2.70;0.85;;;35.80;46.00;;;;;;4907138;29;20112;-73
2023/07/13 13:04:15;;;;;;;5.72;0.70;;;37.10;44.50;;;;;;4907007;29;20036;-74
2023/07/13 13:06:43;;;;;;;3.55;1.00;;;37.80;43.60;;;;;;4908693;29;20047;-74
2023/07/13 13:09:16;;;;;;;2.47;0.70;;;38.30;43.50;;;;;;4908130;29;20070;-72
2023/07/13 13:11:42;;;;;;;2.38;0.70;;;38.90;42.30;;;;;;4909090;29;20391;-74
2023/07/13 13:14:09;;;;;;;2.95;1.10;;;39.40;42.50;;;;;;4908375;29;20032;-73
2023/07/13 13:16:49;;;;;;;2.65;0.80;;;40.10;42.00;;;;;;4908688;29;20079;-73
2023/07/13 13:19:21;;;;;;;2.75;0.75;;;40.60;41.40;;;;;;4907662;29;20377;-74
2023/07/13 13:21:49;;;;;;;3.67;0.82;;;40.70;40.90;;;;;;4908783;29;20051;-75
2023/07/13 13:24:18;;;;;;;6.22;1.40;;;40.00;40.90;;;;;;4907571;29;20043;-72
2023/07/13 13:26:46;;;;;;;2.67;0.80;;;40.70;40.60;;;;;;4908548;29;20040;-75
2023/07/13 13:29:16;;;;;;;2.58;0.70;;;39.90;40.80;;;;;;4907248;29;20410;-70
2023/07/13 13:31:42;;;;;;;3.15;0.85;;;39.70;40.60;;;;;;4899945;29;20092;-73
2023/07/13 13:34:10;;;;;;;2.95;0.82;;;39.60;40.50;;;;;;4888827;29;20029;-73
2023/07/13 13:36:36;;;;;;;2.47;0.82;;;39.20;41.20;;;;;;4889441;29;20033;-70
2023/07/13 13:39:04;;;;;;;3.72;0.68;;;39.60;40.60;;;;;;4889053;29;20044;-72
2023/07/13 13:41:30;;;;;;;2.83;0.70;;;39.50;40.50;;;;;;4889545;29;20041;-71
2023/07/13 13:43:56;;;;;;;2.25;0.60;;;39.60;40.30;;;;;;4889236;29;20037;-69
2023/07/13 13:46:29;;;;;;;2.05;0.70;;;38.60;40.90;;;;;;4907693;29;20092;-70
2023/07/13 13:48:56;;;;;;;2.83;0.75;;;39.10;41.10;;;;;;4907776;29;20052;-73
2023/07/13 13:51:24;;;;;;;3.65;1.10;;;39.70;41.00;;;;;;4907665;29;20048;-72
2023/07/13 13:53:50;;;;;;;4.47;0.70;;;39.80;40.00;;;;;;4907758;29;20028;-73
2023/07/13 13:56:18;;;;;;;3.92;0.90;;;40.70;40.30;;;;;;4907008;29;20314;-73
2023/07/13 13:58:43;;;;;;;2.65;0.52;;;41.00;39.60;;;;;;4907946;29;20064;-74
2023/07/13 14:01:22;;;;;;;11.68;10.55;;;40.90;40.00;;;;;;4907292;29;20084;-72
2023/07/13 14:03:51;;;;;;;2.38;0.75;;;39.60;40.80;;;;;;4906164;29;20389;-71
2023/07/13 14:06:17;;;;;;;5.18;1.27;;;37.80;41.20;;;;;;4907083;29;20123;-73
2023/07/13 14:08:43;;;;;;;3.42;1.23;;;36.20;41.70;;;;;;4907697;29;20036;-73
2023/07/13 14:11:14;;;;;;;3.58;0.90;;;34.80;43.90;;;;;;4907091;29;20085;-74
2023/07/13 14:13:50;;;;;;;3.72;1.70;;;34.20;43.70;;;;;;4907602;29;20094;-71
2023/07/13 14:16:19;;;;;;;3.53;0.80;;;35.30;43.70;;;;;;4906926;29;20055;-72
2023/07/13 14:18:45;;;;;;;2.15;0.60;;;37.60;41.70;;;;;;4902569;29;20048;-69
2023/07/13 14:21:14;;;;;;;2.53;0.60;;;39.10;42.10;;;;;;4887881;29;20033;-69
2023/07/13 14:23:41;;;;;;;2.72;0.80;;;40.10;40.40;;;;;;4903446;29;20100;-70
2023/07/13 14:26:16;;;;;;;4.88;0.88;;;39.30;40.30;;;;;;4888099;29;20088;-69
2023/07/13 14:28:44;;;;;;;2.35;0.70;;;38.90;40.60;;;;;;4888570;29;20366;-69
2023/07/13 14:31:12;;;;;;;3.63;0.70;;;37.70;41.20;;;;;;4904449;29;20047;-68
2023/07/13 14:33:38;;;;;;;2.85;0.63;;;36.40;42.60;;;;;;4907475;29;20043;-71
2023/07/13 14:36:33;;;;;;;3.67;0.70;;;36.60;42.30;;;;;;4907076;29;20032;-70
2023/07/13 14:39:11;;;;;;;3.03;0.95;;;35.00;42.80;;;;;;4907032;29;20036;-69
2023/07/13 14:41:37;;;;;;;2.15;0.65;;;34.40;43.40;;;;;;4907259;29;20049;-70
2023/07/13 14:44:20;;;;;;;6.32;1.13;;;35.50;42.70;;;;;;4906695;29;20119;-70
2023/07/13 14:46:47;;;;;;;3.60;0.52;;;37.10;41.40;;;;;;4922081;29;20226;-69
2023/07/13 14:49:29;;;;;;;3.20;0.50;;;38.70;41.20;;;;;;4906759;29;20044;-70
2023/07/13 14:51:58;;;;;;;4.32;0.70;;;40.40;39.70;;;;;;4907064;29;20034;-70
2023/07/13 14:54:24;;;;;;;1.88;0.65;;;40.80;39.40;;;;;;4903615;29;20036;-72
2023/07/13 14:56:50;;;;;;;2.40;0.90;;;41.20;39.00;;;;;;4907270;29;20258;-73
2023/07/13 14:59:18;;;;;;;3.35;0.77;;;41.70;39.00;;;;;;4906806;29;20088;-71
2023/07/13 15:01:45;;;;;;;2.10;0.50;;;41.70;38.70;;;;;;4906730;29;20075;-70
2023/07/13 15:04:11;;;;;;;2.22;0.68;;;42.40;38.30;;;;;;4906507;29;20040;-70
2023/07/13 15:06:58;;;;;;;3.50;0.80;;;42.80;38.20;;;;;;4903146;29;20032;-71
2023/07/13 15:09:25;;;;;;;;;;;42.20;38.20;;;;;;4907398;29;20040;-71
2023/07/13 15:11:55;;;;;;;;;;;41.50;38.50;;;;;;4907767;29;19954;-70
2023/07/13 15:14:21;;;;;;;2.53;0.85;;;40.60;39.00;;;;;;4907705;29;20517;-72
2023/07/13 15:16:50;;;;;;;2.17;0.70;;;40.90;39.50;;;;;;4906998;29;20052;-71
2023/07/13 15:19:17;;;;;;;2.00;0.60;;;41.10;39.20;;;;;;4906378;29;20044;-71
2023/07/13 15:21:43;;;;;;;4.35;0.93;;;41.10;39.10;;;;;;4907185;29;20397;-70
2023/07/13 15:24:10;;;;;;;2.40;0.88;;;41.00;38.70;;;;;;4906651;29;20035;-71
2023/07/13 15:26:36;;;;;;;2.42;0.70;;;41.30;38.80;;;;;;4925197;29;20039;-71
2023/07/13 15:29:02;;;;;;;3.00;0.70;;;41.70;39.00;;;;;;4910322;29;20040;-72
2023/07/13 15:31:32;;;;;;;2.88;0.85;;;41.30;38.30;;;;;;4910568;29;20156;-71
2023/07/13 15:33:59;;;;;;;4.68;0.75;;;40.70;38.70;;;;;;4909911;29;20028;-70
2023/07/13 15:36:26;;;;;;;1.55;0.70;;;39.60;39.50;;;;;;4910661;29;20043;-72
2023/07/13 15:38:54;;;;;;;3.67;0.77;;;39.70;39.50;;;;;;4910721;29;20037;-71
2023/07/13 15:41:22;;;;;;;;;;;40.30;39.90;;;;;;4910760;29;20030;-71
2023/07/13 15:43:50;;;;;;;2.30;0.70;;;41.00;38.90;;;;;;4910235;29;19919;-71
2023/07/13 15:46:21;;;;;;;2.40;0.60;;;41.60;38.10;;;;;;4910768;29;20100;-71
2023/07/13 15:48:48;;;;;;;4.18;1.15;;;41.30;37.90;;;;;;4926946;29;20047;-69
2023/07/13 15:51:34;;;;;;;4.35;0.90;;;40.70;38.70;;;;;;4911925;29;20338;-71
2023/07/13 15:54:04;;;;;;;2.15;0.75;;;40.60;38.70;;;;;;4907101;29;20037;-72
2023/07/13 15:56:36;;;;;;;2.35;0.80;;;40.70;38.40;;;;;;4891706;29;20339;-72
2023/07/13 15:59:02;;;;;;;2.47;0.70;;;39.50;39.20;;;;;;4890842;29;20045;-72
2023/07/13 16:01:30;;;;;;;3.70;0.68;;;40.00;38.60;;;;;;4891123;29;20088;-71
2023/07/13 16:03:56;;;;;;;2.25;0.70;;;39.30;39.30;;;;;;4891093;29;20044;-72
2023/07/13 16:06:41;;;;;;;3.25;0.90;;;39.20;39.40;;;;;;4908653;29;20028;-71
2023/07/13 16:09:16;;;;;;;4.78;0.90;;;39.60;39.30;;;;;;4909709;29;20207;-72
2023/07/13 16:11:45;;;;;;;2.17;0.80;;;40.30;38.50;;;;;;4909102;29;20032;-74
2023/07/13 16:14:15;;;;;;;3.05;0.80;;;40.80;38.50;;;;;;4909515;29;20044;-70
2023/07/13 16:16:41;;;;;;;1.65;0.70;;;40.80;38.40;;;;;;4909920;29;20326;-69
2023/07/13 16:19:08;;;;;;;2.80;0.75;;;40.20;38.50;;;;;;4908533;29;20035;-70
2023/07/13 16:21:41;;;;;;;2.97;0.90;;;39.90;38.80;;;;;;4910135;29;20025;-72
2023/07/13 16:24:16;;;;;;;2.70;0.63;;;39.90;38.70;;;;;;4909699;29;20091;-73
2023/07/13 16:26:43;;;;;;;5.25;0.77;;;40.70;38.70;;;;;;4909860;29;20028;-70
2023/07/13 16:29:13;;;;;;;3.53;0.90;;;41.20;38.30;;;;;;4923752;29;20044;-71
2023/07/13 16:31:39;;;;;;;2.13;0.70;;;41.30;37.60;;;;;;4909451;29;20318;-71
2023/07/13 16:34:05;;;;;;;3.35;0.68;;;40.60;38.40;;;;;;4909249;29;20027;-71
2023/07/13 16:36:32;;;;;;;2.83;1.10;;;40.20;38.10;;;;;;4909552;29;20055;-70
2023/07/13 16:38:58;;;;;;;3.08;0.73;;;40.20;38.80;;;;;;4909457;29;20044;-71
2023/07/13 16:41:24;;;;;;;4.18;1.52;;;40.80;38.20;;;;;;4909532;29;20366;-72
2023/07/13 16:43:50;;;;;;;2.97;0.60;;;40.10;38.40;;;;;;4909680;29;20215;-72
2023/07/13 16:46:21;;;;;;;1.27;0.50;;;39.80;38.80;;;;;;4907988;29;20032;-71
2023/07/13 16:48:53;;;;;;;3.65;0.70;;;39.80;39.20;;;;;;4909367;29;20041;-71
2023/07/13 16:51:19;;;;;;;2.50;0.70;;;40.00;38.90;;;;;;4908800;29;20033;-70
2023/07/13 16:53:45;;;;;;;1.63;0.60;;;38.70;39.50;;;;;;4909167;29;20341;-72
2023/07/13 16:56:17;;;;;;;5.28;0.70;;;37.70;39.90;;;;;;4908665;29;20390;-71
2023/07/13 16:58:43;;;;;;;4.05;0.93;;;36.70;40.70;;;;;;4918206;29;20050;-70
2023/07/13 17:01:10;;;;;;;4.18;0.60;;;34.70;41.80;;;;;;4908078;29;20032;-73
2023/07/13 17:03:37;;;;;;;2.58;0.57;;;33.80;43.60;;;;;;4909415;29;20111;-71
2023/07/13 17:06:23;;;;;;;3.13;0.70;;;32.90;44.30;;;;;;4908630;29;20029;-70
2023/07/13 17:08:54;;;;;;;3.08;0.88;;;32.60;44.60;;;;;;4909251;29;20083;-73
2023/07/13 17:11:19;;;;;;;5.18;0.88;;;33.10;44.60;;;;;;4904163;29;20044;-71
2023/07/13 17:13:46;;;;;;;2.58;0.73;;;33.90;43.50;;;;;;4909003;29;20222;-72
2023/07/13 17:16:13;;;;;;;3.08;0.85;;;34.30;43.10;;;;;;4908692;29;20020;-74
2023/07/13 17:18:38;;;;;;;4.88;0.80;;;34.60;42.80;;;;;;4908782;29;20040;-73
2023/07/13 17:21:07;;;;;;;4.53;0.50;;;34.50;43.10;;;;;;4908495;29;20028;-71
2023/07/13 17:23:33;;;;;;;2.55;0.70;;;34.60;42.80;;;;;;4909014;29;20362;-73
2023/07/13 17:25:59;;;;;;;2.90;0.80;;;35.00;42.60;;;;;;4908740;29;20029;-72
2023/07/13 17:28:29;;;;;;;4.30;1.10;;;35.60;42.40;;;;;;4923292;29;20133;-74
2023/07/13 17:30:57;;;;;;;3.97;1.00;;;36.00;42.10;;;;;;4908554;29;20174;-72
2023/07/13 17:33:41;;;;;;;1.95;0.57;;;35.50;41.90;;;;;;4908553;29;20032;-71
2023/07/13 17:36:12;;;;;;;2.58;0.80;;;35.30;42.30;;;;;;4908460;29;20032;-72
2023/07/13 17:38:44;;;;;;;2.65;1.00;;;35.00;42.90;;;;;;4908391;29;20037;-71
2023/07/13 17:41:14;;;;;;;2.28;0.68;;;35.00;42.40;;;;;;4907650;29;20275;-71
2023/07/13 17:43:40;;;;;;;2.00;0.70;;;34.40;42.70;;;;;;4908125;29;20036;-72
2023/07/13 17:46:28;;;;;;;2.83;0.75;;;34.00;43.40;;;;;;4906651;29;20036;-72
2023/07/13 17:48:54;;;;;;;3.45;1.00;;;33.70;43.50;;;;;;4907752;29;20075;-71
2023/07/13 17:51:22;;;;;;;4.60;1.00;;;33.50;43.90;;;;;;4907774;29;20031;-72
2023/07/13 17:53:48;;;;;;;2.35;0.80;;;33.30;44.10;;;;;;4908141;29;20033;-69
2023/07/13 17:56:16;;;;;;;5.22;0.95;;;33.40;44.10;;;;;;4907677;29;20029;-69
2023/07/13 17:58:42;;;;;;;3.07;0.90;;;33.50;44.30;;;;;;4908201;29;20060;-73
2023/07/13 18:01:19;;;;;;;2.78;0.80;;;33.80;44.10;;;;;;4907721;29;20036;-72
2023/07/13 18:03:48;;;;;;;3.53;1.20;;;33.60;44.10;;;;;;4907832;29;20072;-72
2023/07/13 18:06:19;;;;;;;3.97;0.95;;;33.60;44.40;;;;;;4902941;29;20029;-72